Glasgow, Montana
Current Conditions -  °F | °C
As of 12:19 PM on Thursday 27 Nov 2014 (Local Time) from KGGW Reporting Station
Broken Clouds Broken Clouds  
Wind Chill: -7°   Ceiling: 11000
Heat Index: -1°   Visibility: 8mi
Dew Point: -3°   Wind: 16mph
Humidity: 88%   Direction: 110°ESE
Pressure: 29.76"   Gusts: NA
Location:  48.2°N, 106.64°W
Report Text: KGGW 271919Z AUTO 11014KT 8SM SCT008 SCT095 BKN110 M01/M03 A2976 RMK AO2 T10111028
Loading
Personal Weather Stations






























Interactive Weather Map New forecast layout! Learn more

10-Day Weather Forecast

Advertisements
Track Severe Weather on mobile